Time;durP1;ratioP1;P1;durP2;ratioP2;P2;SDS_P1;SDS_P2;PMS_P1;PMS_P2;Temp;Humidity;BMP_temperature;BMP_pressure;BME280_temperature;BME280_humidity;BME280_pressure;Samples;Min_cycle;Max_cycle;Signal;HPM_P1;HPM_P2
2023/01/10 00:02:15;;;;;;;31.77;18.83;;;;;;;6.22;100.00;99220.23;1502735;85;21455;-81
2023/01/10 00:04:41;;;;;;;19.50;13.90;;;;;;;6.22;100.00;99220.23;1500865;86;21455;-82
2023/01/10 00:07:07;;;;;;;26.97;16.37;;;;;;;6.23;100.00;99221.87;1509232;86;21499;-79
2023/01/10 00:09:33;;;;;;;21.17;12.97;;;;;;;6.26;100.00;99226.00;1502552;86;21285;-80
2023/01/10 00:14:44;;;;;;;15.13;10.90;;;;;;;6.33;100.00;99235.78;1477986;87;22328;-82
2023/01/10 00:17:10;;;;;;;21.03;12.03;;;;;;;6.36;100.00;99239.06;1480571;87;21322;-81
2023/01/10 00:19:36;;;;;;;22.37;13.57;;;;;;;6.33;100.00;99229.70;1487322;87;21329;-83
2023/01/10 00:22:04;;;;;;;22.60;13.87;;;;;;;6.29;100.00;99229.15;1491419;87;21388;-82
2023/01/10 00:24:31;;;;;;;16.47;10.90;;;;;;;6.26;100.00;99222.87;1479626;87;21455;-81
2023/01/10 00:26:57;;;;;;;14.37;10.17;;;;;;;6.26;100.00;99230.77;1461631;89;21619;-79
2023/01/10 00:29:30;;;;;;;16.53;11.47;;;;;;;6.29;100.00;99238.34;1488477;87;21389;-80
2023/01/10 00:31:57;;;;;;;17.93;12.03;;;;;;;6.30;100.00;99232.14;1483578;87;21587;-81
2023/01/10 00:34:23;;;;;;;17.97;11.53;;;;;;;6.35;100.00;99238.73;1458183;89;21397;-80
2023/01/10 00:36:50;;;;;;;19.83;11.80;;;;;;;6.35;100.00;99235.61;1485763;87;22475;-80
2023/01/10 00:39:19;;;;;;;31.13;13.70;;;;;;;6.38;100.00;99234.48;1496993;85;21506;-80
2023/01/10 00:44:30;;;;;;;17.30;14.00;;;;;;;6.38;100.00;99226.11;1510453;85;21345;-80
2023/01/10 00:46:56;;;;;;;22.67;12.73;;;;;;;6.37;100.00;99221.02;1525175;84;21493;-80
2023/01/10 00:49:22;;;;;;;19.37;13.63;;;;;;;6.33;100.00;99225.27;1514188;85;21315;-81
2023/01/10 00:51:48;;;;;;;16.90;11.90;;;;;;;6.29;100.00;99231.78;1450017;88;21551;-81
2023/01/10 00:54:16;;;;;;;16.80;11.67;;;;;;;6.20;100.00;99237.93;1510901;85;21308;-80
2023/01/10 00:56:42;;;;;;;27.30;13.47;;;;;;;6.13;100.00;99238.20;1506774;84;21388;-80
2023/01/10 00:59:08;;;;;;;20.87;13.57;;;;;;;6.12;100.00;99237.84;1511212;86;21380;-80
2023/01/10 01:01:35;;;;;;;20.27;13.13;;;;;;;6.13;100.00;99234.72;1504066;85;21388;-79
2023/01/10 01:04:01;;;;;;;19.87;11.60;;;;;;;6.14;100.00;99230.65;1513809;85;22319;-81
2023/01/10 01:06:28;;;;;;;16.67;12.77;;;;;;;6.16;100.00;99233.96;1489748;86;21432;-82
2023/01/10 01:08:54;;;;;;;19.03;12.90;;;;;;;6.20;100.00;99233.98;1505825;85;21286;-82
2023/01/10 01:11:20;;;;;;;17.40;10.93;;;;;;;6.22;100.00;99230.73;1492538;85;21299;-83
2023/01/10 01:13:46;;;;;;;16.00;11.20;;;;;;;6.22;100.00;99223.34;1516267;85;21374;-81
2023/01/10 01:16:13;;;;;;;19.30;11.80;;;;;;;6.19;100.00;99238.09;1452854;88;21346;-80
2023/01/10 01:18:39;;;;;;;16.10;11.57;;;;;;;6.17;100.00;99239.55;1480347;88;22260;-80
2023/01/10 01:21:07;;;;;;;31.43;17.23;;;;;;;6.08;100.00;99228.62;1470237;88;21438;-80
2023/01/10 01:23:34;;;;;;;19.30;12.37;;;;;;;6.05;100.00;99226.28;1446740;88;21533;-80
2023/01/10 01:26:01;;;;;;;28.37;16.07;;;;;;;6.06;100.00;99226.62;1484218;86;21322;-80
2023/01/10 01:28:27;;;;;;;17.70;11.83;;;;;;;6.06;100.00;99227.44;1461003;88;21250;-82
2023/01/10 01:30:53;;;;;;;19.77;11.50;;;;;;;6.09;100.00;99224.52;1510780;85;21822;-79
2023/01/10 01:33:20;;;;;;;17.47;10.63;;;;;;;6.04;100.00;99221.53;1516671;85;21393;-81
2023/01/10 01:35:48;;;;;;;16.97;11.60;;;;;;;6.09;100.00;99228.94;1455213;88;22233;-81
2023/01/10 01:38:16;;;;;;;20.73;11.83;;;;;;;6.11;100.00;99229.63;1476600;88;21479;-82
2023/01/10 01:40:43;;;;;;;16.80;11.90;;;;;;;6.13;100.00;99223.75;1500201;86;21360;-81
2023/01/10 01:43:22;;;;;;;23.40;13.77;;;;;;;6.15;100.00;99220.47;1490373;86;21500;-82
2023/01/10 01:45:49;;;;;;;28.50;16.17;;;;;;;6.15;100.00;99215.21;1460344;88;22016;-80
2023/01/10 01:48:36;;;;;;;28.47;14.80;;;;;;;6.14;100.00;99212.25;1455469;88;22013;-80
2023/01/10 01:51:13;;;;;;;26.93;15.87;;;;;;;6.14;100.00;99210.13;1512544;85;22512;-79
2023/01/10 01:53:49;;;;;;;26.97;15.50;;;;;;;6.12;100.00;99207.63;1505165;86;22394;-80
2023/01/10 01:56:34;;;;;;;31.73;15.43;;;;;;;6.13;100.00;99193.54;1506755;85;21366;-80
2023/01/10 01:59:11;;;;;;;22.00;12.87;;;;;;;6.14;100.00;99196.50;1513075;86;21278;-80
2023/01/10 02:01:39;;;;;;;21.27;12.90;;;;;;;6.16;100.00;99191.92;1502013;86;21337;-79
2023/01/10 02:04:11;;;;;;;20.50;11.77;;;;;;;6.18;100.00;99193.89;1466769;88;21634;-80
2023/01/10 02:06:38;;;;;;;18.37;11.97;;;;;;;6.19;100.00;99191.63;1443765;89;22395;-80
2023/01/10 02:09:21;;;;;;;29.00;17.83;;;;;;;6.21;100.00;99196.22;1507612;86;21492;-79
2023/01/10 02:11:48;;;;;;;22.43;15.67;;;;;;;6.21;100.00;99194.09;1475075;86;21440;-80
2023/01/10 02:14:15;;;;;;;26.87;16.53;;;;;;;6.19;100.00;99196.06;1494058;86;21359;-80
2023/01/10 02:16:41;;;;;;;30.00;18.60;;;;;;;6.17;100.00;99194.88;1506563;85;22365;-80
2023/01/10 02:19:13;;;;;;;28.90;16.63;;;;;;;6.14;100.00;99187.30;1514537;86;21425;-80
2023/01/10 02:22:14;;;;;;;27.43;16.20;;;;;;;6.14;100.00;99196.50;1512493;85;21337;-80
2023/01/10 02:25:09;;;;;;;27.27;15.95;;;;;;;6.16;100.00;99196.33;1466610;87;22594;-82
2023/01/10 02:27:43;;;;;;;20.77;14.10;;;;;;;6.16;100.00;99195.87;1482770;87;22379;-82
2023/01/10 02:31:01;;;;;;;23.30;12.67;;;;;;;6.14;100.00;99199.13;1487142;85;22187;-83
2023/01/10 02:33:48;;;;;;;22.93;13.73;;;;;;;6.15;100.00;99201.26;1493007;87;21418;-82
2023/01/10 02:36:25;;;;;;;18.47;13.37;;;;;;;6.10;100.00;99206.97;1488511;85;21639;-82
2023/01/10 02:39:03;;;;;;;25.47;15.20;;;;;;;6.06;100.00;99210.86;1512502;85;21491;-82
2023/01/10 02:41:40;;;;;;;23.43;15.13;;;;;;;6.06;100.00;99220.87;1497520;85;21445;-82
2023/01/10 02:44:15;;;;;;;26.97;16.53;;;;;;;6.07;100.00;99230.88;1514768;85;22231;-82
2023/01/10 02:46:45;;;;;;;20.17;12.50;;;;;;;6.06;100.00;99234.00;1512686;85;21513;-82
2023/01/10 02:49:11;;;;;;;17.50;12.53;;;;;;;6.02;100.00;99223.96;1513805;85;21381;-80
2023/01/10 02:51:37;;;;;;;19.53;14.07;;;;;;;6.00;100.00;99221.95;1512863;85;21551;-82
2023/01/10 02:54:15;;;;;;;18.00;11.93;;;;;;;6.03;100.00;99232.17;1502014;85;21366;-82
2023/01/10 02:57:16;;;;;;;16.03;11.90;;;;;;;6.07;100.00;99231.73;1517076;85;21301;-82
2023/01/10 03:00:00;;;;;;;19.30;12.63;;;;;;;6.14;100.00;99245.09;1411739;89;22692;-82
2023/01/10 03:03:01;;;;;;;22.43;13.97;;;;;;;6.16;100.00;99238.36;1478692;86;21436;-83
2023/01/10 03:05:45;;;;;;;22.48;14.35;;;;;;;6.12;100.00;99240.47;1469562;87;22431;-80
2023/01/10 03:08:36;;;;;;;23.50;16.67;;;;;;;6.09;100.00;99248.16;1476677;87;21544;-80
2023/01/10 03:11:07;;;;;;;19.67;13.60;;;;;;;6.08;100.00;99233.87;1479604;87;21864;-80
2023/01/10 03:13:57;;;;;;;21.68;14.70;;;;;;;6.10;100.00;99237.19;1486349;87;21325;-79
2023/01/10 03:16:28;;;;;;;26.70;14.53;;;;;;;6.10;100.00;99230.62;1503293;86;21506;-80
2023/01/10 03:19:05;;;;;;;20.77;13.20;;;;;;;6.06;100.00;99216.11;1510590;85;21381;-80
2023/01/10 03:21:33;;;;;;;20.47;12.37;;;;;;;6.04;100.00;99220.22;1514364;85;21352;-81
2023/01/10 03:24:04;;;;;;;20.43;12.77;;;;;;;6.05;100.00;99228.91;1509787;85;21478;-81
2023/01/10 03:26:48;;;;;;;19.20;12.60;;;;;;;6.02;100.00;99222.16;1516952;85;21433;-80
2023/01/10 03:29:20;;;;;;;14.37;10.33;;;;;;;6.02;100.00;99217.39;1451207;89;21383;-80
2023/01/10 03:31:52;;;;;;;23.50;13.63;;;;;;;6.04;100.00;99218.05;1489699;88;21478;-79
2023/01/10 03:34:19;;;;;;;22.23;13.63;;;;;;;6.03;100.00;99221.16;1484462;87;21375;-80
2023/01/10 03:36:53;;;;;;;23.10;14.40;;;;;;;6.02;100.00;99212.14;1480034;87;21383;-80
2023/01/10 03:39:28;;;;;;;21.00;13.07;;;;;;;6.02;100.00;99218.70;1473056;87;22342;-81
2023/01/10 03:42:02;;;;;;;17.90;12.03;;;;;;;6.03;100.00;99219.03;1480736;88;21588;-81
2023/01/10 03:44:43;;;;;;;26.87;13.17;;;;;;;6.07;100.00;99223.00;1476462;87;21475;-81
2023/01/10 03:47:30;;;;;;;17.95;12.25;;;;;;;6.08;100.00;99225.98;1461965;87;22358;-81
2023/01/10 03:50:05;;;;;;;16.50;12.27;;;;;;;6.10;100.00;99226.67;1473302;87;21360;-80
2023/01/10 03:52:36;;;;;;;18.43;12.00;;;;;;;6.10;100.00;99227.99;1460622;88;21472;-81
2023/01/10 03:55:04;;;;;;;;;;;;;;;6.08;100.00;99219.42;1480382;87;21310;-80
2023/01/10 03:57:30;;;;;;;20.50;13.57;;;;;;;6.04;100.00;99225.92;1452795;89;20874;-83
2023/01/10 03:59:58;;;;;;;20.43;11.53;;;;;;;6.01;100.00;99227.08;1474576;88;21293;-82
2023/01/10 04:02:29;;;;;;;17.43;11.67;;;;;;;5.99;100.00;99229.51;1482013;86;21344;-81
2023/01/10 04:04:56;;;;;;;;;;;;;;;5.99;100.00;99236.08;1519238;85;21574;-82
2023/01/10 04:07:22;;;;;;;15.83;11.27;;;;;;;5.97;100.00;99240.14;1514089;85;20295;-82
2023/01/10 04:09:48;;;;;;;21.23;13.00;;;;;;;5.96;100.00;99236.37;1516191;86;21329;-81
2023/01/10 04:12:15;;;;;;;16.10;11.43;;;;;;;5.96;100.00;99233.25;1510017;86;21477;-80
2023/01/10 04:14:44;;;;;;;17.20;11.97;;;;;;;5.98;100.00;99233.09;1501348;85;21382;-81
2023/01/10 04:17:10;;;;;;;16.27;11.40;;;;;;;5.98;100.00;99235.22;1455373;88;21531;-80
2023/01/10 04:19:37;;;;;;;16.17;12.37;;;;;;;6.01;100.00;99239.36;1497526;85;21397;-81
2023/01/10 04:22:04;;;;;;;14.60;9.30;;;;;;;6.04;100.00;99240.38;1489835;87;21434;-80
2023/01/10 04:24:31;;;;;;;14.80;11.63;;;;;;;6.04;100.00;99245.63;1511255;85;22167;-79
2023/01/10 04:26:57;;;;;;;15.63;10.73;;;;;;;6.06;100.00;99241.06;1514348;84;21883;-80
2023/01/10 04:29:26;;;;;;;15.73;10.90;;;;;;;6.06;100.00;99243.20;1477727;86;21367;-81
2023/01/10 04:31:52;;;;;;;19.33;12.43;;;;;;;6.07;100.00;99255.84;1479060;87;21506;-80
2023/01/10 04:34:21;;;;;;;14.37;11.23;;;;;;;6.06;100.00;99251.56;1501785;85;21351;-81
2023/01/10 04:36:49;;;;;;;16.17;11.33;;;;;;;6.05;100.00;99257.31;1445491;88;22292;-80
2023/01/10 04:39:15;;;;;;;17.53;10.80;;;;;;;6.04;100.00;99260.08;1466150;86;21367;-80
2023/01/10 04:41:42;;;;;;;16.27;10.97;;;;;;;6.03;100.00;99263.69;1519902;84;22320;-80
2023/01/10 04:44:08;;;;;;;17.40;10.77;;;;;;;6.03;100.00;99256.63;1515596;84;21416;-81
2023/01/10 04:46:34;;;;;;;15.17;11.17;;;;;;;6.05;100.00;99260.44;1456174;88;21494;-81
2023/01/10 04:49:01;;;;;;;19.63;11.47;;;;;;;6.06;100.00;99271.27;1484188;88;21360;-81
2023/01/10 04:51:28;;;;;;;16.47;11.10;;;;;;;6.08;100.00;99268.02;1446724;89;21407;-80
2023/01/10 04:53:54;;;;;;;15.03;10.63;;;;;;;6.12;100.00;99271.99;1482749;88;22194;-82
2023/01/10 04:56:22;;;;;;;17.03;10.10;;;;;;;6.15;100.00;99282.70;1479384;88;22079;-80
2023/01/10 04:58:49;;;;;;;20.57;11.67;;;;;;;6.11;100.00;99278.23;1452687;88;21428;-81
2023/01/10 05:01:22;;;;;;;14.03;9.77;;;;;;;6.11;100.00;99278.23;1510023;85;22142;-80
2023/01/10 05:03:51;;;;;;;14.73;10.50;;;;;;;6.08;100.00;99282.47;1520704;86;21558;-81
2023/01/10 05:06:18;;;;;;;13.53;9.30;;;;;;;6.05;100.00;99275.70;1495109;86;21498;-81
2023/01/10 05:08:45;;;;;;;12.67;8.57;;;;;;;6.04;100.00;99279.31;1506376;86;22660;-82
2023/01/10 05:11:12;;;;;;;13.50;8.53;;;;;;;6.07;100.00;99282.95;1508045;86;22371;-81
2023/01/10 05:13:39;;;;;;;14.63;10.30;;;;;;;6.08;100.00;99285.09;1466515;89;21402;-81
2023/01/10 05:16:06;;;;;;;13.03;9.93;;;;;;;6.11;100.00;99284.80;1475501;88;21389;-81
2023/01/10 05:18:33;;;;;;;17.63;11.40;;;;;;;6.08;100.00;99280.66;1486525;88;21338;-82
2023/01/10 05:21:01;;;;;;;17.60;10.67;;;;;;;6.07;100.00;99284.73;1464605;89;21346;-82
2023/01/10 05:23:28;;;;;;;13.40;10.37;;;;;;;6.06;100.00;99281.28;1478706;87;21367;-82
2023/01/10 05:25:54;;;;;;;17.90;10.60;;;;;;;6.04;100.00;99278.46;1484012;87;21331;-81
2023/01/10 05:28:21;;;;;;;27.80;10.40;;;;;;;6.05;100.00;99288.02;1472653;87;22119;-81
2023/01/10 05:30:47;;;;;;;15.63;9.50;;;;;;;6.04;100.00;99291.13;1462594;89;22365;-80
2023/01/10 05:33:14;;;;;;;14.53;9.83;;;;;;;6.05;100.00;99298.52;1493142;87;21573;-82
2023/01/10 05:35:40;;;;;;;13.13;8.70;;;;;;;6.06;100.00;99306.23;1486877;87;21454;-80
2023/01/10 05:38:06;;;;;;;16.90;9.17;;;;;;;6.07;100.00;99300.03;1488197;87;21403;-81
2023/01/10 05:40:32;;;;;;;15.83;9.10;;;;;;;6.07;100.00;99307.06;1479790;88;21464;-82
2023/01/10 05:42:58;;;;;;;14.53;9.33;;;;;;;6.08;100.00;99316.61;1489157;88;21426;-84
2023/01/10 05:45:24;;;;;;;12.33;9.73;;;;;;;6.08;100.00;99311.36;1480616;88;21574;-81
2023/01/10 05:47:50;;;;;;;14.13;9.57;;;;;;;6.07;100.00;99314.48;1496880;87;22328;-80
2023/01/10 05:50:17;;;;;;;17.17;10.27;;;;;;;6.06;100.00;99319.38;1452468;88;21397;-81
2023/01/10 05:52:43;;;;;;;12.37;9.37;;;;;;;6.04;100.00;99318.72;1478867;88;22564;-80
2023/01/10 05:55:10;;;;;;;11.67;8.70;;;;;;;6.02;100.00;99322.45;1486106;88;21352;-81
2023/01/10 05:57:36;;;;;;;14.23;8.87;;;;;;;5.99;100.00;99322.25;1476190;88;21345;-83
2023/01/10 06:00:05;;;;;;;11.90;8.90;;;;;;;5.98;100.00;99332.40;1485852;88;22254;-82
2023/01/10 06:02:32;;;;;;;12.70;8.83;;;;;;;6.00;100.00;99340.15;1487208;88;22225;-83
2023/01/10 06:04:58;;;;;;;13.57;8.63;;;;;;;6.00;100.00;99342.28;1479538;88;21308;-80
2023/01/10 06:07:24;;;;;;;16.93;9.10;;;;;;;6.03;100.00;99346.42;1486535;88;21426;-84
2023/01/10 06:09:50;;;;;;;14.43;8.63;;;;;;;6.06;100.00;99346.13;1486006;87;21405;-86
2023/01/10 06:12:20;;;;;;;11.13;8.60;;;;;;;6.06;100.00;99340.88;1483088;88;22462;-86
2023/01/10 06:14:46;;;;;;;11.70;9.10;;;;;;;6.08;100.00;99350.77;1481207;88;21426;-86
2023/01/10 06:17:12;;;;;;;11.20;8.50;;;;;;;6.08;100.00;99345.02;1479717;88;21317;-86
2023/01/10 06:19:39;;;;;;;16.97;10.93;;;;;;;6.11;100.00;99351.78;1486417;88;22436;-85
2023/01/10 06:22:06;;;;;;;18.90;11.23;;;;;;;6.06;100.00;99345.64;1493517;87;21381;-85
2023/01/10 06:24:32;;;;;;;17.93;12.13;;;;;;;6.06;100.00;99345.64;1458570;89;21389;-81
2023/01/10 06:26:58;;;;;;;16.87;11.67;;;;;;;6.08;100.00;99365.22;1483167;88;21478;-83
2023/01/10 06:29:24;;;;;;;15.93;10.83;;;;;;;6.07;100.00;99362.22;1459419;89;21462;-83
2023/01/10 06:31:50;;;;;;;15.30;10.43;;;;;;;6.08;100.00;99375.72;1496078;88;21536;-81
2023/01/10 06:34:17;;;;;;;14.77;9.90;;;;;;;6.08;100.00;99383.11;1484879;87;21322;-82
2023/01/10 06:36:43;;;;;;;18.53;11.33;;;;;;;6.08;100.00;99392.80;1482597;87;21467;-83
2023/01/10 06:39:09;;;;;;;15.63;10.27;;;;;;;6.06;100.00;99398.17;1486179;87;21404;-82
2023/01/10 06:41:35;;;;;;;14.63;10.90;;;;;;;6.01;100.00;99411.40;1485810;88;21397;-81
2023/01/10 06:44:02;;;;;;;15.60;11.30;;;;;;;5.97;100.00;99410.04;1487933;87;22005;-81
2023/01/10 06:46:28;;;;;;;16.40;10.63;;;;;;;5.98;100.00;99410.38;1467427;89;22344;-81
2023/01/10 06:48:55;;;;;;;17.83;10.97;;;;;;;6.00;100.00;99406.63;1482698;87;21552;-81
2023/01/10 06:51:21;;;;;;;16.57;9.67;;;;;;;6.05;100.00;99408.84;1464206;89;21411;-83
2023/01/10 06:53:47;;;;;;;12.40;9.33;;;;;;;6.10;100.00;99404.81;1480612;88;21447;-82
2023/01/10 06:56:14;;;;;;;13.10;9.30;;;;;;;6.13;100.00;99403.70;1483445;88;21308;-81
2023/01/10 06:58:40;;;;;;;16.90;9.43;;;;;;;6.17;100.00;99401.12;1455698;88;21456;-83
2023/01/10 07:01:16;;;;;;;14.07;10.60;;;;;;;6.19;100.00;99388.67;1490860;87;21374;-83
2023/01/10 07:03:42;;;;;;;16.33;10.33;;;;;;;6.22;100.00;99384.44;1490122;88;21345;-81
2023/01/10 07:06:09;;;;;;;15.20;10.03;;;;;;;6.23;100.00;99393.97;1483103;88;22343;-85
2023/01/10 07:08:37;;;;;;;14.07;10.13;;;;;;;6.21;100.00;99399.84;1473190;88;21469;-84
2023/01/10 07:11:04;;;;;;;16.30;12.40;;;;;;;6.20;100.00;99406.58;1486925;88;21515;-84
2023/01/10 07:13:30;;;;;;;13.60;9.37;;;;;;;6.18;100.00;99418.53;1479571;88;21419;-82
2023/01/10 07:16:09;;;;;;;12.63;9.90;;;;;;;6.21;100.00;99426.12;1483409;87;21278;-84
2023/01/10 07:18:37;;;;;;;12.13;9.00;;;;;;;6.20;100.00;99431.05;1486751;88;21562;-82
2023/01/10 07:21:05;;;;;;;13.80;9.10;;;;;;;6.20;100.00;99429.73;1483249;88;21330;-84
2023/01/10 07:23:31;;;;;;;14.87;10.53;;;;;;;6.21;100.00;99433.18;1481258;88;21374;-84
2023/01/10 07:26:02;;;;;;;11.80;9.20;;;;;;;6.22;100.00;99431.73;1490451;87;22210;-84
2023/01/10 07:28:29;;;;;;;13.17;9.40;;;;;;;6.24;100.00;99436.37;1443875;89;21519;-82
2023/01/10 07:30:59;;;;;;;16.83;9.87;;;;;;;6.24;100.00;99433.74;1489921;87;21338;-82
2023/01/10 07:33:25;;;;;;;14.50;10.30;;;;;;;6.26;100.00;99427.84;1481744;87;22202;-83
2023/01/10 07:35:51;;;;;;;14.50;10.70;;;;;;;6.27;100.00;99423.41;1480172;87;21530;-82
2023/01/10 07:38:17;;;;;;;18.33;11.73;;;;;;;6.25;100.00;99420.94;1488112;87;21433;-80
2023/01/10 07:40:44;;;;;;;16.50;11.83;;;;;;;6.23;100.00;99420.73;1482006;87;22336;-79
2023/01/10 07:43:10;;;;;;;13.67;10.77;;;;;;;6.23;100.00;99433.38;1485960;87;21352;-88
2023/01/10 07:45:36;;;;;;;15.77;11.07;;;;;;;6.25;100.00;99439.82;1481128;87;21537;-87
2023/01/10 07:48:04;;;;;;;15.03;11.60;;;;;;;6.25;100.00;99445.90;1485283;87;21338;-88
2023/01/10 07:50:34;;;;;;;18.07;12.17;;;;;;;6.27;100.00;99461.05;1487112;87;21382;-76
2023/01/10 07:53:03;;;;;;;15.77;10.10;;;;;;;6.30;100.00;99466.02;1478517;87;21366;-76
2023/01/10 07:55:33;;;;;;;14.37;9.83;;;;;;;6.32;100.00;99469.30;1482691;87;21257;-78
2023/01/10 07:57:59;;;;;;;13.07;10.27;;;;;;;6.36;100.00;99468.55;1479530;87;21647;-80
2023/01/10 08:00:26;;;;;;;13.10;10.50;;;;;;;6.36;100.00;99467.70;1487721;87;22276;-81
2023/01/10 08:02:54;;;;;;;14.40;10.57;;;;;;;6.37;100.00;99465.44;1488510;87;21367;-80
2023/01/10 08:05:22;;;;;;;15.30;10.57;;;;;;;6.39;100.00;99460.84;1490180;87;21433;-80
2023/01/10 08:07:48;;;;;;;16.43;11.07;;;;;;;6.41;100.00;99464.16;1482473;87;21559;-80
2023/01/10 08:10:15;;;;;;;13.97;10.03;;;;;;;6.40;100.00;99470.40;1489240;87;21331;-80
2023/01/10 08:12:42;;;;;;;17.13;11.47;;;;;;;6.40;100.00;99473.03;1489208;87;21456;-80
2023/01/10 08:15:09;;;;;;;16.50;10.33;;;;;;;6.38;100.00;99469.70;1480244;87;21359;-80
2023/01/10 08:17:36;;;;;;;14.00;10.30;;;;;;;6.34;100.00;99474.43;1493555;87;21396;-80
2023/01/10 08:20:02;;;;;;;17.37;11.87;;;;;;;6.28;100.00;99481.58;1475744;87;21889;-81
2023/01/10 08:22:28;;;;;;;14.23;11.67;;;;;;;6.23;100.00;99496.45;1482032;87;21382;-80
2023/01/10 08:24:54;;;;;;;16.40;12.23;;;;;;;6.22;100.00;99500.05;1490418;87;21711;-79
2023/01/10 08:27:21;;;;;;;20.03;12.70;;;;;;;6.18;100.00;99505.72;1487480;87;21315;-79
2023/01/10 08:29:47;;;;;;;19.83;13.00;;;;;;;6.16;100.00;99509.82;1487671;87;21463;-80
2023/01/10 08:32:13;;;;;;;19.53;13.13;;;;;;;6.13;100.00;99497.43;1488388;87;21367;-78
2023/01/10 08:34:40;;;;;;;22.30;13.53;;;;;;;6.10;100.00;99501.20;1486317;87;21448;-80
2023/01/10 08:37:06;;;;;;;20.23;13.90;;;;;;;6.03;100.00;99494.34;1486502;87;22314;-80
2023/01/10 08:39:34;;;;;;;19.83;14.23;;;;;;;5.99;100.00;99498.23;1491786;87;21375;-80
2023/01/10 08:42:00;;;;;;;20.37;13.50;;;;;;;5.97;100.00;99504.11;1488274;87;21507;-80
2023/01/10 08:44:26;;;;;;;23.07;14.30;;;;;;;5.94;100.00;99511.44;1493163;87;21316;-80
2023/01/10 08:46:52;;;;;;;22.37;13.53;;;;;;;5.94;100.00;99515.38;1489207;87;22497;-80
2023/01/10 08:49:19;;;;;;;19.13;13.43;;;;;;;5.96;100.00;99523.47;1489364;87;21478;-80
2023/01/10 08:51:45;;;;;;;17.97;11.83;;;;;;;5.95;100.00;99525.73;1490753;87;21448;-79
2023/01/10 08:54:12;;;;;;;20.80;13.60;;;;;;;5.98;100.00;99537.76;1485455;87;21588;-79
2023/01/10 08:56:39;;;;;;;19.10;13.20;;;;;;;6.00;100.00;99545.02;1487295;87;21382;-80
2023/01/10 08:59:06;;;;;;;19.43;12.60;;;;;;;6.04;100.00;99558.20;1482043;87;21522;-80
2023/01/10 09:01:33;;;;;;;18.20;12.30;;;;;;;6.06;100.00;99566.79;1473908;87;21963;-80
2023/01/10 09:03:59;;;;;;;20.87;13.97;;;;;;;6.06;100.00;99570.73;1489228;87;21388;-80
2023/01/10 09:06:26;;;;;;;19.67;15.10;;;;;;;6.05;100.00;99579.59;1466133;87;23028;-79
2023/01/10 09:08:52;;;;;;;38.83;22.67;;;;;;;6.07;100.00;99588.14;1480759;87;22320;-79
2023/01/10 09:11:18;;;;;;;25.90;15.47;;;;;;;6.08;100.00;99598.52;1483358;87;21367;-79
2023/01/10 09:13:49;;;;;;;21.33;15.63;;;;;;;6.12;100.00;99597.75;1489670;87;21397;-79
2023/01/10 09:16:17;;;;;;;18.37;13.50;;;;;;;6.15;100.00;99593.53;1492112;87;21352;-79
2023/01/10 09:18:43;;;;;;;20.47;13.50;;;;;;;6.17;100.00;99596.86;1485052;87;21522;-79
2023/01/10 09:21:09;;;;;;;17.80;12.47;;;;;;;6.14;100.00;99607.65;1481249;87;21307;-80
2023/01/10 09:23:35;;;;;;;18.80;13.83;;;;;;;6.13;100.00;99607.31;1482524;87;21485;-79
2023/01/10 09:26:02;;;;;;;19.87;13.97;;;;;;;6.15;100.00;99611.92;1489387;87;21360;-79
2023/01/10 09:28:28;;;;;;;22.77;15.40;;;;;;;6.17;100.00;99623.13;1489819;87;21293;-79
2023/01/10 09:30:55;;;;;;;15.63;12.47;;;;;;;6.22;100.00;99626.18;1483910;87;21478;-79
2023/01/10 09:33:21;;;;;;;18.67;13.30;;;;;;;6.27;100.00;99625.74;1476700;87;21624;-78
2023/01/10 09:35:47;;;;;;;16.23;12.03;;;;;;;6.29;100.00;99628.58;1491980;87;21271;-79
2023/01/10 09:38:17;;;;;;;19.33;13.73;;;;;;;6.33;100.00;99626.03;1489963;87;21507;-79
2023/01/10 09:41:16;;;;;;;17.45;13.25;;;;;;;6.42;100.00;99634.05;1485245;87;22306;-78
2023/01/10 09:44:15;;;;;;;16.67;12.30;;;;;;;6.41;100.00;99637.14;1483380;87;21441;-78
2023/01/10 09:47:04;;;;;;;21.13;13.47;;;;;;;6.44;100.00;99641.30;1486210;87;22313;-79
2023/01/10 09:49:58;;;;;;;19.07;14.40;;;;;;;6.45;100.00;99644.28;1490436;87;22276;-79
2023/01/10 09:52:32;;;;;;;26.20;16.90;;;;;;;6.47;100.00;99644.95;1479929;87;21426;-79
2023/01/10 09:55:04;;;;;;;23.03;16.77;;;;;;;6.45;100.00;99641.17;1486651;87;21293;-79
2023/01/10 09:57:30;;;;;;;25.23;17.37;;;;;;;6.47;100.00;99644.95;1489030;87;21508;-80
2023/01/10 09:59:57;;;;;;;22.60;17.03;;;;;;;6.50;100.00;99643.36;1485458;87;21352;-79
2023/01/10 10:02:31;;;;;;;24.33;15.53;;;;;;;6.56;100.00;99642.82;1490581;87;22434;-79
2023/01/10 10:05:20;;;;;;;25.07;18.07;;;;;;;6.60;100.00;99638.92;1491097;87;21307;-79
2023/01/10 10:07:51;;;;;;;23.53;15.67;;;;;;;6.63;100.00;99643.90;1486829;87;21471;-79
2023/01/10 10:10:23;;;;;;;18.13;12.43;;;;;;;6.67;100.00;99646.58;1488686;87;22306;-79
2023/01/10 10:13:22;;;;;;;20.30;13.80;;;;;;;6.69;100.00;99651.22;1486440;87;21381;-79
2023/01/10 10:15:57;;;;;;;20.10;12.67;;;;;;;6.68;100.00;99648.26;1484693;87;22305;-79
2023/01/10 10:18:35;;;;;;;18.33;13.70;;;;;;;6.60;100.00;99661.28;1483227;87;21419;-80
2023/01/10 10:21:06;;;;;;;21.37;13.53;;;;;;;6.59;100.00;99664.88;1484559;87;22388;-78
2023/01/10 10:24:10;;;;;;;18.47;11.90;;;;;;;6.56;100.00;99673.05;1491454;87;21463;-79
2023/01/10 10:27:11;;;;;;;19.43;13.00;;;;;;;6.51;100.00;99677.41;1450754;87;21692;-79
2023/01/10 10:29:53;;;;;;;;;;;;;;;6.47;100.00;99685.23;1487426;87;21492;-79
2023/01/10 10:32:40;;;;;;;18.33;11.27;;;;;;;6.40;100.00;99678.04;1480074;87;20252;-79
2023/01/10 10:35:23;;;;;;;15.40;10.27;;;;;;;6.36;100.00;99685.38;1489077;87;21345;-80
2023/01/10 10:37:53;;;;;;;15.27;11.50;;;;;;;6.35;100.00;99686.33;1481297;87;21433;-79
2023/01/10 10:40:24;;;;;;;14.17;10.33;;;;;;;6.31;100.00;99687.59;1485297;87;22210;-80
2023/01/10 10:42:53;;;;;;;;;;;;;;;6.30;100.00;99688.08;1493185;87;21403;-80
2023/01/10 10:45:40;;;;;;;15.43;10.63;;;;;;;6.27;100.00;99692.30;1489025;87;20223;-79
2023/01/10 10:48:32;;;;;;;14.00;10.60;;;;;;;6.28;100.00;99689.18;1487679;87;22542;-79
2023/01/10 10:51:19;;;;;;;13.00;9.30;;;;;;;6.31;100.00;99691.03;1487172;87;21381;-78
2023/01/10 10:53:47;;;;;;;15.40;9.00;;;;;;;6.36;100.00;99697.66;1484080;87;21935;-84
2023/01/10 10:56:17;;;;;;;13.17;10.13;;;;;;;6.41;100.00;99705.48;1459820;87;21352;-82
2023/01/10 10:58:47;;;;;;;16.57;10.48;;;;;;;6.46;100.00;99698.51;1486713;87;21426;-84
2023/01/10 11:01:14;;;;;;;16.30;11.10;;;;;;;6.52;100.00;99703.20;1486960;87;22846;-85
2023/01/10 11:04:09;;;;;;;15.20;10.77;;;;;;;6.51;100.00;99701.55;1464521;87;21403;-85
2023/01/10 11:06:39;;;;;;;12.27;8.70;;;;;;;6.48;100.00;99708.41;1484703;87;22255;-83
2023/01/10 11:09:06;;;;;;;11.33;8.70;;;;;;;6.42;100.00;99707.66;1486371;87;21551;-83
2023/01/10 11:11:44;;;;;;;12.97;7.50;;;;;;;6.35;100.00;99710.47;1484610;87;22292;-83
2023/01/10 11:14:12;;;;;;;15.47;7.90;;;;;;;6.36;100.00;99701.61;1486167;87;22210;-85
2023/01/10 11:16:43;;;;;;;10.93;7.83;;;;;;;6.38;100.00;99707.56;1406912;87;21242;-84
2023/01/10 11:19:25;;;;;;;9.87;6.63;;;;;;;6.38;100.00;99703.63;1509855;87;22365;-83
2023/01/10 11:22:05;;;;;;;12.93;7.37;;;;;;;6.37;100.00;99704.60;1478761;87;21516;-84
2023/01/10 11:24:39;;;;;;;12.03;7.30;;;;;;;6.37;100.00;99704.60;1479348;87;21367;-83
2023/01/10 11:27:28;;;;;;;10.37;7.03;;;;;;;6.36;100.00;99710.81;1487826;87;21395;-84
2023/01/10 11:30:08;;;;;;;8.43;6.20;;;;;;;6.36;100.00;99701.61;1483508;88;21508;-84
2023/01/10 11:32:41;;;;;;;8.50;5.63;;;;;;;6.37;100.00;99701.97;1485494;88;21364;-84
2023/01/10 11:35:21;;;;;;;11.07;6.50;;;;;;;6.35;100.00;99702.59;1480378;88;21448;-84
2023/01/10 11:38:14;;;;;;;8.13;5.10;;;;;;;6.37;100.00;99715.11;1482923;88;22210;-85
2023/01/10 11:40:55;;;;;;;9.67;5.07;;;;;;;6.36;100.00;99725.27;1482747;88;21359;-84
2023/01/10 11:43:33;;;;;;;5.83;4.03;;;;;;;6.36;100.00;99722.17;1480710;88;21536;-84